Time;durP1;ratioP1;P1;durP2;ratioP2;P2;SDS_P1;SDS_P2;PMS_P1;PMS_P2;Temp;Humidity;BMP_temperature;BMP_pressure;BME280_temperature;BME280_humidity;BME280_pressure;Samples;Min_cycle;Max_cycle;Signal;HPM_P1;HPM_P2
2023/01/19 00:00:03;;;;;;;16.43;9.20;;;;;;;2.18;77.89;98396.22;5044684;28;20482;-79
2023/01/19 00:02:28;;;;;;;16.35;9.32;;;;;;;2.21;78.25;98406.50;5044348;28;20270;-80
2023/01/19 00:04:53;;;;;;;12.83;8.17;;;;;;;2.36;77.95;98409.69;5044188;28;20029;-79
2023/01/19 00:07:19;;;;;;;15.85;9.52;;;;;;;2.21;78.18;98403.00;5043609;28;20282;-79
2023/01/19 00:09:44;;;;;;;14.73;8.18;;;;;;;2.08;78.93;98404.91;5044093;28;20029;-80
2023/01/19 00:12:09;;;;;;;14.40;8.40;;;;;;;2.12;79.24;98404.41;5043717;28;20049;-80
2023/01/19 00:14:34;;;;;;;16.27;8.63;;;;;;;2.22;79.02;98404.59;5044221;28;20254;-80
2023/01/19 00:17:03;;;;;;;14.95;8.90;;;;;;;2.14;78.76;98397.75;5043512;28;20349;-79
2023/01/19 00:19:28;;;;;;;11.85;8.10;;;;;;;2.05;79.83;98401.91;5043472;28;20407;-79
2023/01/19 00:21:54;;;;;;;17.52;8.63;;;;;;;2.04;79.74;98408.31;5043482;28;20032;-79
2023/01/19 00:24:19;;;;;;;15.98;8.32;;;;;;;2.07;79.36;98402.47;5043376;28;20036;-79
2023/01/19 00:26:45;;;;;;;14.15;7.07;;;;;;;2.07;79.01;98402.47;5043098;28;20086;-78
2023/01/19 00:29:12;;;;;;;16.40;7.82;;;;;;;2.06;79.40;98406.22;5043235;28;20091;-79
2023/01/19 00:31:38;;;;;;;13.38;7.22;;;;;;;2.02;79.40;98408.56;5043003;28;20091;-79
2023/01/19 00:34:04;;;;;;;13.43;8.25;;;;;;;2.13;79.55;98406.91;5043704;28;20429;-79
2023/01/19 00:36:30;;;;;;;13.90;8.55;;;;;;;2.18;78.73;98406.97;5043504;28;20040;-79
2023/01/19 00:38:55;;;;;;;14.05;8.38;;;;;;;2.14;78.98;98413.06;5043136;28;20114;-79
2023/01/19 00:42:38;;;;;;;20.15;8.57;;;;;;;2.07;79.19;98418.63;5043290;28;20410;-79
2023/01/19 00:44:06;;;;;;;12.18;8.07;;;;;;;2.09;79.85;98406.56;5043649;28;20116;-78
2023/01/19 00:46:32;;;;;;;19.35;9.65;;;;;;;2.09;79.89;98405.75;5043432;28;20047;-79
2023/01/19 00:48:57;;;;;;;17.67;8.43;;;;;;;2.06;79.97;98406.22;5042515;28;20467;-79
2023/01/19 00:51:22;;;;;;;14.52;7.28;;;;;;;2.14;79.43;98402.31;5042780;28;20040;-79
2023/01/19 00:53:47;;;;;;;15.30;8.87;;;;;;;2.12;79.72;98410.63;5043235;28;20025;-79
2023/01/19 00:56:12;;;;;;;15.27;7.93;;;;;;;2.14;78.74;98416.56;5043031;28;20298;-79
2023/01/19 00:58:38;;;;;;;12.77;6.93;;;;;;;2.13;79.49;98412.28;5042814;28;20278;-78
2023/01/19 01:01:04;;;;;;;17.00;9.00;;;;;;;2.11;79.11;98417.06;5043684;28;20269;-79
2023/01/19 01:03:30;;;;;;;14.38;7.45;;;;;;;2.16;79.35;98411.78;5043187;28;20359;-79
2023/01/19 01:05:55;;;;;;;14.70;8.30;;;;;;;2.20;79.21;98415.59;5043148;28;20779;-79
2023/01/19 01:08:20;;;;;;;13.63;7.30;;;;;;;2.26;79.22;98421.09;5042540;28;20457;-77
2023/01/19 01:10:46;;;;;;;16.67;8.47;;;;;;;2.19;78.84;98415.84;5042938;28;20274;-79
2023/01/19 01:13:11;;;;;;;16.77;7.80;;;;;;;2.07;79.60;98413.25;5043215;28;20293;-79
2023/01/19 01:15:36;;;;;;;14.88;7.78;;;;;;;1.94;79.84;98408.97;5043332;28;20743;-78
2023/01/19 01:18:01;;;;;;;17.08;8.52;;;;;;;2.00;80.19;98407.19;5042900;28;20033;-78
2023/01/19 01:20:29;;;;;;;15.55;9.05;;;;;;;2.10;80.45;98412.75;5043108;28;20128;-79
2023/01/19 01:22:55;;;;;;;15.05;8.20;;;;;;;2.16;79.93;98406.41;5042524;28;20120;-79
2023/01/19 01:25:22;;;;;;;16.23;7.93;;;;;;;2.15;79.85;98426.28;5042936;28;20036;-79
2023/01/19 01:27:48;;;;;;;12.35;7.28;;;;;;;2.26;79.33;98415.72;5042607;28;20029;-78
2023/01/19 01:30:13;;;;;;;14.13;8.55;;;;;;;2.32;78.98;98414.72;5043147;28;20044;-79
2023/01/19 01:32:39;;;;;;;21.20;10.65;;;;;;;2.28;79.33;98408.22;5042925;28;20132;-78
2023/01/19 01:35:05;;;;;;;17.15;8.35;;;;;;;2.22;79.96;98421.56;5043317;28;20041;-79
2023/01/19 01:37:30;;;;;;;16.45;9.25;;;;;;;2.31;79.60;98424.69;5042607;28;20485;-79
2023/01/19 01:39:55;;;;;;;21.67;8.85;;;;;;;2.41;79.05;98418.66;5042665;28;20394;-78
2023/01/19 01:42:27;;;;;;;14.02;8.85;;;;;;;2.36;78.87;98426.63;5042652;28;20044;-78
2023/01/19 01:44:54;;;;;;;16.90;8.27;;;;;;;2.51;79.07;98436.00;5042665;28;20083;-79
2023/01/19 01:47:35;;;;;;;16.00;9.75;;;;;;;2.36;79.44;98432.00;5042215;28;20512;-79
2023/01/19 01:50:15;;;;;;;13.93;7.45;;;;;;;2.50;79.22;98426.31;5042922;28;20125;-79
2023/01/19 01:53:10;;;;;;;13.88;7.95;;;;;;;2.34;79.83;98428.75;5042086;28;20059;-77
2023/01/19 01:55:43;;;;;;;21.75;9.07;;;;;;;2.24;79.93;98423.22;5040066;28;20041;-79
2023/01/19 01:58:10;;;;;;;32.00;8.97;;;;;;;2.30;79.82;98424.91;5042471;28;20116;-79
2023/01/19 02:03:23;;;;;;;13.48;7.68;;;;;;;2.30;79.84;98423.03;5046277;28;20103;-79
2023/01/19 02:05:49;;;;;;;13.43;7.03;;;;;;;2.38;79.58;98424.50;5046330;28;20041;-79
2023/01/19 02:13:52;;;;;;;13.68;7.65;;;;;;;2.24;80.11;98428.59;5046358;28;20059;-79
2023/01/19 02:16:17;;;;;;;16.45;10.02;;;;;;;2.27;79.66;98415.47;5046380;28;20045;-79
2023/01/19 02:18:44;;;;;;;14.95;7.90;;;;;;;2.13;80.00;98428.41;5045685;28;20048;-79
2023/01/19 02:21:22;;;;;;;19.70;9.05;;;;;;;2.18;80.66;98420.41;5045977;28;20045;-79
2023/01/19 02:23:56;;;;;;;18.40;9.15;;;;;;;2.13;79.90;98424.91;5045972;28;20036;-79
2023/01/19 02:26:38;;;;;;;12.95;7.40;;;;;;;2.16;80.00;98410.94;5046116;28;20044;-79
2023/01/19 02:29:07;;;;;;;13.52;7.72;;;;;;;2.27;79.73;98414.63;5045456;28;20051;-79
2023/01/19 02:31:34;;;;;;;15.13;7.97;;;;;;;2.37;79.67;98412.13;5045783;28;20041;-79
2023/01/19 02:34:01;;;;;;;12.65;8.43;;;;;;;2.36;79.23;98420.44;5046209;28;20021;-79
2023/01/19 02:36:45;;;;;;;13.25;7.00;;;;;;;2.47;78.54;98422.25;5045314;28;20072;-79
2023/01/19 02:39:12;;;;;;;12.68;7.80;;;;;;;2.50;78.85;98419.03;5045377;28;20033;-79
2023/01/19 02:41:44;;;;;;;14.73;6.68;;;;;;;2.47;79.09;98416.03;5045218;28;20049;-79
2023/01/19 02:44:10;;;;;;;14.73;8.07;;;;;;;2.33;79.38;98411.81;5045714;28;20508;-80
2023/01/19 02:46:37;;;;;;;13.30;7.95;;;;;;;2.24;79.31;98413.25;5045326;28;20059;-80
2023/01/19 02:49:02;;;;;;;18.10;9.60;;;;;;;2.29;79.80;98412.53;5045254;28;20087;-79
2023/01/19 02:51:28;;;;;;;13.45;6.95;;;;;;;2.25;79.56;98412.19;5045484;28;20045;-79
2023/01/19 02:54:19;;;;;;;14.27;6.75;;;;;;;2.43;79.01;98411.16;5045474;28;20029;-80
2023/01/19 02:57:15;;;;;;;13.95;6.88;;;;;;;2.34;79.07;98409.91;5045145;28;20033;-79
2023/01/19 03:00:08;;;;;;;10.02;6.30;;;;;;;2.38;78.77;98408.38;5043738;28;20041;-79
2023/01/19 03:02:49;;;;;;;11.75;6.45;;;;;;;2.27;79.45;98406.56;5045637;28;20136;-79
2023/01/19 03:05:44;;;;;;;20.30;6.43;;;;;;;2.35;79.35;98399.97;5045402;28;20064;-78
2023/01/19 03:08:27;;;;;;;28.75;8.40;;;;;;;2.22;79.63;98400.03;5044942;28;20047;-80
2023/01/19 03:11:03;;;;;;;12.55;7.10;;;;;;;2.34;79.21;98391.06;5044769;28;20065;-79
2023/01/19 03:13:49;;;;;;;14.75;7.38;;;;;;;2.36;78.93;98386.28;5045018;28;20037;-79
2023/01/19 03:16:17;;;;;;;11.50;6.65;;;;;;;2.36;79.23;98399.72;5044949;28;20041;-79
2023/01/19 03:18:46;;;;;;;18.60;6.90;;;;;;;2.34;78.78;98399.16;5044337;28;20064;-79
2023/01/19 03:21:14;;;;;;;11.77;6.65;;;;;;;2.25;79.14;98397.94;5045058;28;20379;-79
2023/01/19 03:23:43;;;;;;;13.45;6.47;;;;;;;2.16;79.25;98387.56;5044476;28;20405;-79
2023/01/19 03:26:10;;;;;;;14.13;6.30;;;;;;;2.25;79.50;98390.69;5044598;28;20055;-79
2023/01/19 03:28:39;;;;;;;13.10;7.63;;;;;;;2.35;78.82;98389.22;5044412;28;20482;-78
2023/01/19 03:31:20;;;;;;;16.25;7.03;;;;;;;2.42;78.24;98397.94;5043947;28;20032;-79
2023/01/19 03:33:53;;;;;;;11.55;6.65;;;;;;;2.37;78.22;98390.59;5044246;28;20044;-79
2023/01/19 03:36:40;;;;;;;12.93;7.07;;;;;;;2.26;78.21;98383.44;5043668;28;20037;-79
2023/01/19 03:39:08;;;;;;;14.45;6.32;;;;;;;2.16;79.31;98384.06;5043505;28;20060;-78
2023/01/19 03:41:36;;;;;;;10.18;5.82;;;;;;;2.15;79.10;98383.25;5043806;28;20020;-78
2023/01/19 03:44:05;;;;;;;10.90;5.32;;;;;;;2.16;79.19;98386.75;5044199;28;20433;-78
2023/01/19 03:46:31;;;;;;;13.98;7.97;;;;;;;2.00;80.09;98399.13;5043889;28;20053;-79
2023/01/19 03:48:57;;;;;;;22.15;6.90;;;;;;;2.10;80.05;98396.59;5043508;28;20037;-78
2023/01/19 03:51:23;;;;;;;12.27;7.30;;;;;;;2.30;79.22;98393.44;5043272;28;20036;-78
2023/01/19 03:53:48;;;;;;;9.55;6.10;;;;;;;2.14;79.54;98397.75;5043735;28;20024;-79
2023/01/19 03:56:23;;;;;;;12.95;7.03;;;;;;;2.06;79.57;98396.28;5043200;28;21032;-79
2023/01/19 03:58:49;;;;;;;13.30;6.47;;;;;;;2.15;79.27;98390.50;5043196;28;20124;-79
2023/01/19 04:01:16;;;;;;;22.20;7.97;;;;;;;2.19;78.90;98395.16;5043468;28;20043;-78
2023/01/19 04:03:41;;;;;;;13.65;7.18;;;;;;;2.22;79.69;98397.34;5043359;28;20072;-78
2023/01/19 04:06:08;;;;;;;12.38;6.57;;;;;;;2.21;79.41;98403.00;5043573;28;20536;-79
2023/01/19 04:08:34;;;;;;;15.07;7.13;;;;;;;2.30;81.87;98408.75;5043131;28;20047;-78
2023/01/19 04:11:00;;;;;;;12.88;7.78;;;;;;;2.25;83.19;98403.31;5043102;28;20048;-78
2023/01/19 04:13:27;;;;;;;11.35;6.10;;;;;;;2.36;80.97;98397.03;5043379;28;20037;-79
2023/01/19 04:15:52;;;;;;;12.63;6.70;;;;;;;2.35;80.78;98394.59;5043416;28;20036;-78
2023/01/19 04:18:18;;;;;;;13.68;7.55;;;;;;;2.24;81.35;98396.31;5042693;28;20033;-79
2023/01/19 04:20:43;;;;;;;11.25;6.43;;;;;;;2.17;81.82;98399.16;5043029;28;20130;-79
2023/01/19 04:23:09;;;;;;;16.57;6.97;;;;;;;2.09;82.26;98400.38;5042779;28;20041;-79
2023/01/19 04:25:34;;;;;;;14.37;5.70;;;;;;;2.06;82.62;98400.84;5042853;28;20354;-79
2023/01/19 04:27:59;;;;;;;13.37;7.27;;;;;;;2.11;83.09;98395.56;5042700;28;20510;-79
2023/01/19 04:30:26;;;;;;;12.73;4.93;;;;;;;2.11;83.22;98398.25;5043013;28;20262;-79
2023/01/19 04:32:52;;;;;;;13.80;6.55;;;;;;;1.96;84.51;98393.41;5042786;28;20319;-79
2023/01/19 04:35:18;;;;;;;14.73;6.78;;;;;;;1.89;84.99;98385.50;5042946;28;20024;-79
2023/01/19 04:37:46;;;;;;;14.70;8.02;;;;;;;1.90;86.24;98397.88;5042661;28;20532;-78
2023/01/19 04:40:11;;;;;;;14.57;8.25;;;;;;;1.84;86.79;98393.47;5042592;28;20029;-78
2023/01/19 04:42:36;;;;;;;10.95;6.30;;;;;;;1.80;87.44;98389.63;5043193;28;20053;-80
2023/01/19 04:45:02;;;;;;;13.27;6.90;;;;;;;1.72;90.00;98393.53;5042602;28;20060;-79
2023/01/19 04:47:27;;;;;;;13.07;7.22;;;;;;;1.81;90.88;98394.75;5042976;28;20330;-79
2023/01/19 04:49:52;;;;;;;16.30;8.50;;;;;;;1.66;92.07;98389.09;5043125;28;20024;-79
2023/01/19 04:52:18;;;;;;;16.87;7.37;;;;;;;1.60;95.19;98393.56;5043064;28;20420;-79
2023/01/19 04:54:43;;;;;;;18.38;7.60;;;;;;;1.66;94.16;98387.25;5043049;28;20262;-79
2023/01/19 04:57:08;;;;;;;21.75;7.60;;;;;;;1.63;94.87;98387.69;5042639;28;20032;-79
2023/01/19 04:59:34;;;;;;;12.15;6.43;;;;;;;1.43;95.76;98385.44;5042561;28;20059;-78
2023/01/19 05:01:59;;;;;;;11.95;6.95;;;;;;;1.46;95.85;98388.47;5042625;28;20040;-79
2023/01/19 05:04:24;;;;;;;13.23;7.18;;;;;;;1.42;95.77;98384.63;5042888;28;20078;-79
2023/01/19 05:06:50;;;;;;;13.45;7.72;;;;;;;1.43;96.68;98399.69;5043016;28;20303;-79
2023/01/19 05:09:16;;;;;;;11.18;7.57;;;;;;;1.47;96.72;98406.22;5042198;28;20037;-78
2023/01/19 05:11:41;;;;;;;12.98;6.10;;;;;;;1.48;97.13;98386.38;5042353;28;20029;-79
2023/01/19 05:14:06;;;;;;;14.52;6.80;;;;;;;1.48;97.22;98402.50;5042965;28;20077;-79
2023/01/19 05:16:33;;;;;;;10.55;6.20;;;;;;;1.53;97.18;98391.00;5042982;28;20086;-79
2023/01/19 05:18:58;;;;;;;13.05;8.13;;;;;;;1.52;96.23;98392.09;5041939;28;20116;-79
2023/01/19 05:21:24;;;;;;;11.48;5.78;;;;;;;1.57;96.65;98394.03;5042689;28;20135;-78
2023/01/19 05:23:49;;;;;;;9.63;4.53;;;;;;;1.51;95.47;98380.50;5042520;28;20466;-79
2023/01/19 05:26:14;;;;;;;10.87;6.27;;;;;;;1.57;95.51;98377.91;5042322;28;20040;-78
2023/01/19 05:28:40;;;;;;;13.73;6.78;;;;;;;1.67;95.09;98391.53;5040216;28;20269;-79
2023/01/19 05:31:05;;;;;;;10.75;5.45;;;;;;;1.62;93.96;98396.84;5041421;28;20789;-77
2023/01/19 05:33:30;;;;;;;12.38;6.75;;;;;;;1.54;93.80;98405.28;5041209;28;20045;-79
2023/01/19 05:35:56;;;;;;;8.95;4.63;;;;;;;1.46;94.47;98401.91;5043700;28;20029;-79
2023/01/19 05:38:21;;;;;;;11.65;6.35;;;;;;;1.50;94.29;98415.69;5044618;28;20041;-79
2023/01/19 05:40:47;;;;;;;12.57;5.15;;;;;;;1.56;94.41;98408.53;5045689;28;20139;-79
2023/01/19 05:43:13;;;;;;;9.27;4.97;;;;;;;1.50;93.02;98427.25;5046108;28;20123;-79
2023/01/19 05:45:39;;;;;;;10.95;6.72;;;;;;;1.67;93.60;98421.09;5045825;28;20080;-79
2023/01/19 05:48:06;;;;;;;14.18;5.68;;;;;;;1.72;93.23;98418.53;5045978;28;20099;-79
2023/01/19 05:50:31;;;;;;;10.98;5.97;;;;;;;1.72;92.91;98415.84;5046202;28;20035;-79
2023/01/19 05:52:57;;;;;;;11.07;4.93;;;;;;;1.59;92.20;98411.56;5046052;28;20017;-79
2023/01/19 05:55:23;;;;;;;13.82;5.20;;;;;;;1.52;93.45;98418.94;5045911;28;20479;-78
2023/01/19 05:57:48;;;;;;;9.35;4.60;;;;;;;1.45;95.61;98416.38;5045371;28;20330;-79
2023/01/19 06:00:14;;;;;;;10.27;5.97;;;;;;;1.65;96.72;98404.41;5045904;28;20029;-79
2023/01/19 06:02:40;;;;;;;10.00;4.93;;;;;;;1.44;95.00;98409.41;5045544;28;20120;-78
2023/01/19 06:05:05;;;;;;;10.43;5.32;;;;;;;1.39;95.59;98426.22;5045855;28;20428;-79
2023/01/19 06:07:30;;;;;;;7.28;3.88;;;;;;;1.38;96.36;98423.78;5045401;28;20487;-80
2023/01/19 06:09:56;;;;;;;9.65;4.18;;;;;;;1.17;97.30;98423.34;5045392;28;20033;-79
2023/01/19 06:12:22;;;;;;;6.20;3.47;;;;;;;1.33;99.27;98439.75;5045209;28;20036;-78
2023/01/19 06:14:48;;;;;;;9.50;3.47;;;;;;;1.16;98.80;98444.00;5045118;28;20394;-78
2023/01/19 06:17:13;;;;;;;7.95;4.82;;;;;;;1.23;99.20;98446.56;5045248;28;20036;-78
2023/01/19 06:19:38;;;;;;;8.23;3.53;;;;;;;1.21;100.00;98445.16;5045625;28;20021;-79
2023/01/19 06:22:03;;;;;;;11.00;5.40;;;;;;;1.46;100.00;98439.53;5045552;28;20059;-78
2023/01/19 06:24:29;;;;;;;8.30;4.17;;;;;;;1.53;100.00;98441.25;5045108;28;20850;-79
2023/01/19 06:26:54;;;;;;;4.75;2.35;;;;;;;1.65;99.20;98439.34;5044875;28;20274;-78
2023/01/19 06:29:20;;;;;;;5.47;3.03;;;;;;;1.74;96.57;98447.84;5045094;28;20040;-79
2023/01/19 06:31:46;;;;;;;7.35;3.50;;;;;;;1.88;95.15;98448.38;5044857;28;20120;-79
2023/01/19 06:34:11;;;;;;;4.40;2.17;;;;;;;1.65;100.00;98444.72;5045135;28;20492;-79
2023/01/19 06:36:37;;;;;;;6.03;3.05;;;;;;;1.86;100.00;98450.50;5045481;28;20041;-79
2023/01/19 06:39:04;;;;;;;5.63;2.30;;;;;;;1.80;95.22;98452.28;5045103;28;20486;-79
2023/01/19 06:41:30;;;;;;;7.65;3.63;;;;;;;1.68;94.73;98455.00;5045224;28;20037;-78
2023/01/19 06:43:55;;;;;;;8.27;3.03;;;;;;;1.81;95.21;98448.50;5045223;28;20048;-78
2023/01/19 06:46:20;;;;;;;5.15;3.20;;;;;;;1.91;95.41;98452.47;5044432;28;20045;-79
2023/01/19 06:48:45;;;;;;;8.05;3.42;;;;;;;1.86;100.00;98472.00;5044505;28;20040;-79
2023/01/19 06:51:11;;;;;;;5.83;2.63;;;;;;;1.67;100.00;98464.09;5044865;28;20389;-79
2023/01/19 06:53:37;;;;;;;11.07;3.83;;;;;;;1.65;100.00;98476.16;5044863;28;20254;-78
2023/01/19 06:56:03;;;;;;;6.30;2.90;;;;;;;1.86;100.00;98482.75;5044703;28;20536;-78
2023/01/19 06:58:29;;;;;;;6.65;1.95;;;;;;;1.83;100.00;98480.56;5044511;28;20124;-79
2023/01/19 07:00:59;;;;;;;5.20;2.65;;;;;;;1.88;100.00;98480.63;5044448;28;20116;-79
2023/01/19 07:03:24;;;;;;;7.18;2.45;;;;;;;2.11;100.00;98500.44;5044358;28;20025;-79
2023/01/19 07:05:51;;;;;;;5.10;2.57;;;;;;;2.25;100.00;98489.38;5043282;28;20102;-77
2023/01/19 07:08:16;;;;;;;5.95;3.15;;;;;;;2.13;97.56;98482.19;5043934;28;20308;-77
2023/01/19 07:10:41;;;;;;;4.43;2.47;;;;;;;2.22;95.83;98493.34;5044029;28;20321;-79
2023/01/19 07:13:06;;;;;;;4.97;3.07;;;;;;;2.21;93.52;98495.25;5043407;28;20720;-79
2023/01/19 07:15:32;;;;;;;5.53;2.77;;;;;;;2.20;93.52;98508.91;5043998;28;20262;-79
2023/01/19 07:17:58;;;;;;;7.13;2.78;;;;;;;2.07;93.23;98512.72;5043543;28;20270;-79
2023/01/19 07:20:23;;;;;;;5.00;2.28;;;;;;;2.09;92.78;98524.06;5044422;28;20521;-79
2023/01/19 07:22:54;;;;;;;7.32;2.65;;;;;;;2.03;93.55;98525.00;5044089;28;20056;-78
2023/01/19 07:25:19;;;;;;;4.30;1.80;;;;;;;2.11;92.74;98532.72;5043972;28;20036;-78
2023/01/19 07:27:45;;;;;;;5.78;2.83;;;;;;;2.23;92.40;98535.34;5043175;28;20037;-79
2023/01/19 07:30:11;;;;;;;3.78;2.08;;;;;;;1.94;93.04;98525.38;5042298;28;20474;-80
2023/01/19 07:32:36;;;;;;;4.13;1.88;;;;;;;1.83;93.08;98537.00;5043831;28;20048;-79
2023/01/19 07:35:02;;;;;;;5.22;2.10;;;;;;;1.92;93.20;98535.56;5044380;28;20044;-79
2023/01/19 07:37:27;;;;;;;3.85;2.35;;;;;;;1.94;93.11;98533.44;5043369;28;20036;-79
2023/01/19 07:39:52;;;;;;;5.72;2.38;;;;;;;2.13;92.96;98544.03;5042772;28;20067;-79
2023/01/19 07:42:18;;;;;;;4.57;1.80;;;;;;;1.92;92.33;98540.13;5043536;28;20049;-78
2023/01/19 07:44:43;;;;;;;5.00;2.35;;;;;;;1.75;92.86;98546.22;5041986;28;20779;-79
2023/01/19 07:47:11;;;;;;;3.63;1.90;;;;;;;1.89;92.98;98549.50;5041868;28;20051;-79
2023/01/19 07:49:36;;;;;;;4.75;2.60;;;;;;;1.83;92.97;98555.81;5041706;28;20033;-79
2023/01/19 07:52:02;;;;;;;8.23;3.95;;;;;;;1.85;93.46;98562.56;5041455;28;20536;-79
2023/01/19 07:54:28;;;;;;;9.75;4.57;;;;;;;2.04;92.97;98569.66;5043189;28;20049;-79
2023/01/19 07:56:54;;;;;;;8.43;3.63;;;;;;;1.86;92.12;98566.91;5041695;28;20036;-79
2023/01/19 07:59:19;;;;;;;10.77;3.92;;;;;;;1.85;93.43;98570.63;5042314;28;20881;-78
2023/01/19 08:01:44;;;;;;;12.85;5.47;;;;;;;1.95;93.14;98571.91;5043259;28;20922;-79
2023/01/19 08:04:10;;;;;;;9.90;4.60;;;;;;;1.91;92.43;98585.00;5043578;28;20029;-78
2023/01/19 08:06:37;;;;;;;8.02;4.22;;;;;;;1.92;93.16;98578.56;5043669;28;20731;-78
2023/01/19 08:09:04;;;;;;;8.23;3.85;;;;;;;1.81;92.93;98590.97;5042879;28;20428;-78
2023/01/19 08:11:30;;;;;;;9.70;4.57;;;;;;;1.83;93.51;98593.44;5042735;28;20028;-78
2023/01/19 08:13:55;;;;;;;9.38;5.88;;;;;;;1.76;93.22;98598.94;5043253;28;20051;-79
2023/01/19 08:16:21;;;;;;;9.55;5.78;;;;;;;1.69;93.37;98600.94;5043447;28;20033;-78
2023/01/19 08:18:46;;;;;;;10.60;4.82;;;;;;;1.72;93.63;98611.22;5042975;28;20386;-77
2023/01/19 08:21:11;;;;;;;12.48;5.65;;;;;;;1.78;94.11;98604.06;5043191;28;20029;-78
2023/01/19 08:23:37;;;;;;;10.83;5.00;;;;;;;1.95;93.27;98613.03;5043524;28;20043;-81
2023/01/19 08:26:28;;;;;;;9.83;4.77;;;;;;;1.88;93.43;98615.03;5043812;28;20365;-79
2023/01/19 08:28:55;;;;;;;14.43;6.72;;;;;;;1.86;92.86;98617.97;5043234;28;20265;-78
2023/01/19 08:31:20;;;;;;;9.13;5.10;;;;;;;2.10;93.21;98619.81;5043166;28;20031;-78
2023/01/19 08:33:46;;;;;;;12.82;5.97;;;;;;;2.16;92.56;98616.16;5043278;28;20033;-78
2023/01/19 08:36:11;;;;;;;10.02;5.25;;;;;;;2.26;91.85;98620.94;5043308;28;20040;-81
2023/01/19 08:38:39;;;;;;;8.95;5.07;;;;;;;2.26;91.30;98625.53;5042952;28;20037;-78
2023/01/19 08:41:04;;;;;;;13.35;6.93;;;;;;;2.32;90.90;98633.44;5042987;28;20056;-79
2023/01/19 08:43:30;;;;;;;10.23;4.27;;;;;;;2.35;90.58;98645.59;5043446;28;20071;-79
2023/01/19 08:45:55;;;;;;;9.55;4.72;;;;;;;2.24;90.71;98643.75;5043332;28;20269;-79
2023/01/19 08:48:21;;;;;;;13.60;5.55;;;;;;;2.05;91.02;98641.22;5043207;28;20045;-78
2023/01/19 08:50:47;;;;;;;13.57;7.22;;;;;;;1.89;92.17;98662.41;5042779;28;20486;-79
2023/01/19 08:53:14;;;;;;;10.65;6.30;;;;;;;1.92;93.13;98650.34;5043229;28;20032;-79
2023/01/19 08:55:39;;;;;;;11.25;5.00;;;;;;;2.01;93.28;98657.00;5042358;28;20041;-78
2023/01/19 08:58:06;;;;;;;12.82;6.15;;;;;;;2.16;92.66;98659.19;5041145;28;20393;-80
2023/01/19 09:00:33;;;;;;;12.70;6.88;;;;;;;2.16;92.60;98671.81;5043485;28;20049;-79
2023/01/19 09:03:00;;;;;;;13.48;7.63;;;;;;;2.20;92.03;98660.34;5043184;28;20036;-79
2023/01/19 09:05:26;;;;;;;11.88;6.72;;;;;;;2.16;91.79;98667.25;5043221;28;20048;-84
2023/01/19 09:07:51;;;;;;;11.52;6.63;;;;;;;1.96;92.67;98673.84;5042542;28;20525;-83
2023/01/19 09:10:17;;;;;;;14.02;8.45;;;;;;;2.08;92.30;98679.19;5045071;28;20056;-78
2023/01/19 09:12:43;;;;;;;15.18;8.57;;;;;;;2.00;92.79;98678.72;5046494;28;20124;-79
2023/01/19 09:15:11;;;;;;;12.90;7.05;;;;;;;2.08;93.56;98683.75;5046080;28;20041;-78
2023/01/19 09:17:36;;;;;;;16.92;8.57;;;;;;;2.06;92.89;98680.47;5045955;28;20166;-78
2023/01/19 09:20:03;;;;;;;16.15;8.25;;;;;;;2.15;93.26;98694.41;5046852;28;20123;-79
2023/01/19 09:22:28;;;;;;;14.77;9.40;;;;;;;2.11;93.12;98688.69;5046949;28;20124;-78
2023/01/19 09:24:53;;;;;;;13.77;8.47;;;;;;;2.12;93.42;98703.75;5045745;28;20404;-79
2023/01/19 09:27:18;;;;;;;21.00;9.80;;;;;;;1.78;93.70;98700.81;5044566;28;20282;-78
2023/01/19 09:29:51;;;;;;;15.73;9.13;;;;;;;1.84;94.54;98700.72;5046125;28;20277;-76
2023/01/19 09:32:17;;;;;;;12.77;7.70;;;;;;;1.87;94.62;98702.13;5045804;28;20284;-78
2023/01/19 09:34:42;;;;;;;18.75;10.73;;;;;;;1.84;94.20;98706.09;5045798;28;20191;-77
2023/01/19 09:37:08;;;;;;;17.35;9.32;;;;;;;2.05;94.75;98709.25;5045852;28;20116;-77
2023/01/19 09:39:33;;;;;;;19.95;10.82;;;;;;;2.21;94.12;98715.81;5045359;28;20078;-77
2023/01/19 09:42:24;;;;;;;16.27;10.20;;;;;;;2.10;92.73;98713.91;5045778;28;20048;-77
2023/01/19 09:44:52;;;;;;;20.55;9.90;;;;;;;2.11;93.04;98718.25;5042123;28;20261;-78
2023/01/19 09:47:22;;;;;;;15.85;9.43;;;;;;;2.22;93.18;98725.50;5045206;28;20037;-77
2023/01/19 09:49:57;;;;;;;19.30;9.27;;;;;;;2.16;93.29;98723.75;5045618;28;20029;-77
2023/01/19 09:52:22;;;;;;;20.67;11.27;;;;;;;2.04;93.62;98731.81;5045976;28;20587;-77
2023/01/19 09:54:55;;;;;;;21.23;10.68;;;;;;;2.18;93.57;98723.50;5045400;28;20025;-78
2023/01/19 09:57:23;;;;;;;17.83;11.18;;;;;;;2.20;93.24;98738.38;5043663;28;20033;-76
2023/01/19 09:59:50;;;;;;;20.30;10.57;;;;;;;2.26;93.26;98739.28;5045268;28;20037;-77
2023/01/19 10:02:26;;;;;;;19.40;11.55;;;;;;;2.40;93.19;98739.84;5045217;28;20111;-76
2023/01/19 10:05:20;;;;;;;21.42;11.65;;;;;;;2.40;92.69;98739.84;5045310;28;20040;-76
2023/01/19 10:08:07;;;;;;;19.08;11.10;;;;;;;2.31;92.60;98741.28;5044914;28;20449;-76
2023/01/19 10:10:34;;;;;;;18.15;10.15;;;;;;;2.52;92.05;98749.81;5044331;28;20994;-78
2023/01/19 10:13:26;;;;;;;16.15;9.25;;;;;;;2.28;91.54;98755.22;5045021;28;20029;-79
2023/01/19 10:16:20;;;;;;;18.00;9.85;;;;;;;2.24;92.90;98751.34;5043721;28;20080;-79
2023/01/19 10:18:50;;;;;;;35.72;12.18;;;;;;;2.38;92.72;98752.72;5044712;28;20389;-79
2023/01/19 10:21:23;;;;;;;17.48;10.23;;;;;;;2.35;91.71;98753.22;5044425;28;20148;-78
2023/01/19 10:23:54;;;;;;;16.02;8.52;;;;;;;2.32;92.74;98759.88;5044989;28;20090;-79
2023/01/19 10:26:25;;;;;;;16.27;9.98;;;;;;;2.42;92.54;98759.28;5044484;28;20044;-79
2023/01/19 10:29:06;;;;;;;16.70;11.70;;;;;;;2.30;92.41;98758.47;5044771;28;20025;-78
2023/01/19 10:31:34;;;;;;;18.38;8.68;;;;;;;2.45;92.15;98764.22;5044893;28;20069;-80
2023/01/19 10:33:59;;;;;;;19.10;11.95;;;;;;;2.55;92.38;98765.47;5045318;28;20525;-79
2023/01/19 10:36:33;;;;;;;18.70;11.20;;;;;;;2.41;91.63;98770.28;5045316;28;20108;-83
2023/01/19 10:38:58;;;;;;;18.92;11.13;;;;;;;2.33;92.65;98774.16;5044459;28;20025;-78
2023/01/19 10:41:51;;;;;;;16.92;9.77;;;;;;;2.28;92.81;98768.66;5043223;28;20371;-78
2023/01/19 10:44:24;;;;;;;21.30;11.38;;;;;;;2.36;92.05;98776.34;5044385;28;20079;-78
2023/01/19 10:46:50;;;;;;;21.90;12.02;;;;;;;2.22;92.21;98776.59;5044102;28;20045;-79
2023/01/19 10:49:39;;;;;;;19.48;10.60;;;;;;;2.25;92.58;98779.88;5044276;28;20044;-78
2023/01/19 10:52:06;;;;;;;19.17;13.43;;;;;;;2.29;92.33;98787.25;5044718;28;20040;-78
2023/01/19 10:54:35;;;;;;;25.55;13.77;;;;;;;2.27;92.31;98785.84;5044657;28;20028;-80
2023/01/19 10:57:03;;;;;;;23.77;14.30;;;;;;;2.35;92.46;98787.34;5044778;28;20037;-78
2023/01/19 10:59:49;;;;;;;25.85;15.23;;;;;;;2.57;92.58;98795.66;5043991;28;20040;-79
2023/01/19 11:02:25;;;;;;;27.58;14.77;;;;;;;2.61;91.71;98783.38;5043314;28;20045;-79
2023/01/19 11:04:53;;;;;;;22.08;14.23;;;;;;;2.66;91.14;98791.56;5044623;28;20086;-81
2023/01/19 11:07:26;;;;;;;21.65;13.93;;;;;;;2.58;90.52;98794.63;5044130;28;20029;-79
2023/01/19 11:10:21;;;;;;;22.73;13.95;;;;;;;2.62;90.94;98794.97;5044087;28;20047;-78
2023/01/19 11:13:12;;;;;;;28.23;16.85;;;;;;;2.56;90.80;98794.03;5040801;28;20040;-77
2023/01/19 11:15:56;;;;;;;29.15;16.38;;;;;;;2.68;91.14;98794.00;5044147;28;20625;-78
2023/01/19 11:18:23;;;;;;;30.02;16.27;;;;;;;2.65;90.38;98789.91;5043766;28;20036;-79
2023/01/19 11:20:52;;;;;;;25.95;15.55;;;;;;;2.64;90.51;98793.69;5043280;28;20047;-80
2023/01/19 11:23:23;;;;;;;28.52;17.58;;;;;;;2.62;90.92;98803.84;5042489;28;20028;-79
2023/01/19 11:25:50;;;;;;;31.90;15.45;;;;;;;2.80;90.03;98794.00;5043306;28;20032;-78
2023/01/19 11:28:19;;;;;;;27.88;14.75;;;;;;;2.75;90.18;98800.06;5043246;28;20037;-80
2023/01/19 11:31:13;;;;;;;26.73;16.20;;;;;;;2.70;89.81;98807.22;5043578;28;20547;-80
2023/01/19 11:33:50;;;;;;;30.73;17.25;;;;;;;2.55;90.32;98798.59;5038111;28;20131;-80
2023/01/19 11:36:29;;;;;;;32.05;19.92;;;;;;;2.53;90.36;98794.50;5043761;28;20282;-79
2023/01/19 11:38:57;;;;;;;29.23;17.40;;;;;;;2.76;91.21;98795.53;5043192;28;20120;-79
2023/01/19 11:41:27;;;;;;;40.58;21.77;;;;;;;2.71;90.19;98798.09;5043044;28;20037;-80
2023/01/19 11:44:14;;;;;;;28.13;17.38;;;;;;;2.77;90.57;98802.53;5043171;28;20043;-77
2023/01/19 11:46:43;;;;;;;32.85;17.60;;;;;;;2.92;89.58;98800.19;5043223;28;20106;-82
2023/01/19 11:49:26;;;;;;;42.35;18.77;;;;;;;2.82;89.42;98802.66;5043395;28;20041;-79